• Join FlightAware (Why Join?)
  • Login
  • US Flag 
03:32PM EDT


 

Airport Tracker/Info


-or-


 

Live Flight TrackerFlight Track Log ✈ RPA4907 ✈ 11-Jul-2013 ✈ KEWR - KBWI

Flight Track Log - Related Links

Times and Time Zones

All times are in EDT time to prevent confusion due to time zone crossing. See the RPA4907 flight status page for this flight to view local times or setup timezone preferences in your user account.

Time Position Orientation Groundspeed Altitude Reporting Facility
EDT Latitude Longitude Course Direction KTS MPH feet Rate Location/Type
04:38PM 40.7167 -74.1500 246° West 181 208 1,500  Level New York TRACON
04:39PM 40.7667 -74.1167 27° Northeast 231 266 3,200 2,220 Climbing New York TRACON
04:40PM 40.7667 -74.2000 270° West 215 247 6,000 2,400 Climbing New York TRACON
04:41PM 40.5310 -74.6268 245° Southwest  Level FlightAware Approximate
04:41PM 40.7500 -74.2833 255° West 226 260 8,000  Level New York TRACON
04:42PM 40.4909 -74.7442 246° West  Level FlightAware Approximate
04:43PM 40.4516 -74.8620 246° West  Level FlightAware Approximate
04:43PM 40.6928 -74.4194 241° Southwest 240 276 11,200  Level New York Center
04:44PM 40.6528 -74.5019 237° Southwest 245 282 12,900 1,380 Climbing New York Center
04:45PM 40.6147 -74.5819 238° Southwest 250 288 14,000 480 Climbing New York Center
04:46PM 40.5767 -74.6619 238° Southwest 272 313 14,000  Level New York Center
04:47PM 40.5253 -74.7656 237° Southwest 309 356 14,000  Level New York Center
04:48PM 40.4739 -74.8661 236° Southwest 331 381 14,100  Climbing New York Center
04:49PM 40.4289 -74.9589 238° Southwest 337 388 14,100  Level New York Center
04:50PM 40.3672 -75.0533 229° Southwest 337 388 14,100  Level New York Center
04:51PM 40.2950 -75.1494 225° Southwest 343 395 14,100  Level New York Center
04:52PM 40.2289 -75.2406 226° Southwest 343 395 14,100 -60 Level New York Center
04:53PM 40.1628 -75.3339 227° Southwest 357 411 14,000 -60 Descending New York Center
04:54PM 40.0967 -75.4244 226° Southwest 357 411 14,000  Level New York Center
04:55PM 40.0328 -75.5125 227° Southwest 357 411 14,000  Level New York Center
04:56PM 39.9667 -75.6028 226° Southwest 352 405 14,000  Level New York Center
04:57PM 39.9022 -75.6958 228° Southwest 357 411 14,000  Level New York Center
04:58PM 39.8522 -75.7978 237° Southwest 345 397 14,000 -480 Level New York Center
04:59PM 39.8000 -75.8967 236° Southwest 338 389 13,100 -1,080 Descending New York Center
05:01PM 39.7167 -76.0667 238° Southwest 324 373 11,300 -840 Descending Potomac TRACON
05:02PM 39.6667 -76.1500 232° Southwest 311 358 11,000 -660 Descending Potomac TRACON
05:03PM 39.6167 -76.2333 232° Southwest 274 315 10,000 -1,020 Descending Potomac TRACON
05:04PM 39.5667 -76.3167 232° Southwest 272 313 9,000 -1,020 Descending Potomac TRACON
05:05PM 39.5167 -76.3667 218° Southwest 267 307 8,000 -1,020 Descending Potomac TRACON
05:06PM 39.4500 -76.4167 210° Southwest 271 312 7,000 -1,020 Descending Potomac TRACON
05:07PM 39.3833 -76.4500 201° Southwest 282 325 6,000 -1,200 Descending Potomac TRACON
05:08PM 39.3000 -76.4500 180° South 274 315 4,700 -1,080 Descending Potomac TRACON
05:09PM 39.2333 -76.4500 180° South 272 313 3,900 -900 Descending Potomac TRACON
05:10PM 39.1667 -76.5000 210° Southwest 239 275 2,900 -1,020 Descending Potomac TRACON